createdAt,value
2019-02-25T00:01:20.183Z,50.83
2019-02-25T00:03:50.808Z,50.29
2019-02-25T00:06:21.766Z,50.30
2019-02-25T00:08:53.042Z,50.47
2019-02-25T00:11:24.320Z,51.00
2019-02-25T00:13:55.738Z,51.46
2019-02-25T00:16:27.174Z,51.46
2019-02-25T00:18:58.460Z,51.34
2019-02-25T00:21:30.818Z,50.61
2019-02-25T00:24:02.370Z,51.65
2019-02-25T00:26:34.048Z,51.83
2019-02-25T00:29:05.554Z,51.39
2019-02-25T00:31:36.856Z,51.13
2019-02-25T00:34:08.168Z,51.72
2019-02-25T00:36:39.464Z,51.33
2019-02-25T00:39:10.815Z,51.33
2019-02-25T00:41:42.016Z,51.92
2019-02-25T00:44:13.714Z,51.58
2019-02-25T00:46:44.932Z,51.40
2019-02-25T00:49:16.243Z,51.49
2019-02-25T00:51:47.655Z,51.25
2019-02-25T00:54:19.028Z,51.19
2019-02-25T00:56:51.423Z,51.75
2019-02-25T00:59:22.733Z,51.63
2019-02-25T01:01:54.094Z,51.65
2019-02-25T01:04:25.540Z,51.38
2019-02-25T01:06:56.950Z,51.33
2019-02-25T01:09:28.312Z,51.66
2019-02-25T01:11:59.760Z,52.34
2019-02-25T01:14:31.211Z,52.13
2019-02-25T01:17:02.653Z,52.18
2019-02-25T01:19:34.061Z,51.61
2019-02-25T01:22:05.461Z,52.34
2019-02-25T01:24:36.783Z,52.43
2019-02-25T01:27:08.034Z,53.13
2019-02-25T01:29:39.413Z,53.36
2019-02-25T01:32:10.859Z,53.90
2019-02-25T01:34:42.250Z,54.11
2019-02-25T01:37:13.713Z,53.88
2019-02-25T01:39:45.244Z,54.44
2019-02-25T01:42:18.189Z,54.00
2019-02-25T01:44:49.539Z,54.81
2019-02-25T01:47:20.838Z,54.85
2019-02-25T01:49:52.135Z,54.85
2019-02-25T01:52:23.500Z,54.81
2019-02-25T01:54:54.743Z,55.36
2019-02-25T01:57:25.991Z,55.36
2019-02-25T01:59:57.322Z,55.09
2019-02-25T02:02:28.717Z,54.69
2019-02-25T02:04:59.998Z,54.47
2019-02-25T02:07:31.429Z,54.74
2019-02-25T02:10:02.939Z,54.67
2019-02-25T02:12:34.333Z,54.72
2019-02-25T02:15:09.312Z,54.70
2019-02-25T02:17:41.906Z,54.34
2019-02-25T02:20:15.269Z,54.59
2019-02-25T02:22:46.527Z,54.62
2019-02-25T02:25:17.925Z,54.26
2019-02-25T02:27:49.324Z,54.26
2019-02-25T02:30:21.695Z,54.43
2019-02-25T02:32:53.063Z,54.65
2019-02-25T02:35:24.444Z,54.71
2019-02-25T02:37:55.868Z,54.71
2019-02-25T02:40:27.362Z,54.60
2019-02-25T02:43:00.464Z,55.01
2019-02-25T02:45:34.996Z,54.37
2019-02-25T02:48:12.289Z,54.13
2019-02-25T02:50:43.745Z,54.42
2019-02-25T02:53:15.116Z,54.42
2019-02-25T02:55:46.496Z,54.42
2019-02-25T02:58:17.925Z,54.10
2019-02-25T03:00:49.285Z,54.58
2019-02-25T03:03:21.619Z,54.38
2019-02-25T03:05:53.181Z,54.45
2019-02-25T03:08:24.518Z,54.35
2019-02-25T03:10:55.915Z,54.71
2019-02-25T03:13:27.344Z,54.80
2019-02-25T03:15:58.802Z,54.78
2019-02-25T03:18:30.329Z,55.41
2019-02-25T03:21:01.695Z,55.53
2019-02-25T03:23:33.071Z,55.38
2019-02-25T03:26:04.527Z,56.10
2019-02-25T03:28:35.884Z,56.00
2019-02-25T03:31:07.346Z,56.13
2019-02-25T03:33:39.073Z,55.59
2019-02-25T03:36:10.520Z,56.03
2019-02-25T03:38:41.999Z,56.26
2019-02-25T03:41:13.722Z,56.56
2019-02-25T03:43:45.042Z,56.92
2019-02-25T03:46:16.432Z,56.92
2019-02-25T03:48:47.931Z,56.65
2019-02-25T03:51:19.291Z,56.89
2019-02-25T03:53:50.690Z,57.04
2019-02-25T03:56:22.156Z,57.04
2019-02-25T03:58:53.590Z,57.32
2019-02-25T04:01:24.976Z,57.30
2019-02-25T04:03:56.380Z,56.91
2019-02-25T04:06:27.716Z,57.43
2019-02-25T04:08:58.995Z,57.60
2019-02-25T04:11:30.400Z,57.35
2019-02-25T04:14:01.820Z,57.56
2019-02-25T04:16:32.958Z,58.26
2019-02-25T04:19:04.319Z,58.18
2019-02-25T04:21:35.594Z,57.41
2019-02-25T04:24:06.853Z,58.32
2019-02-25T04:26:38.163Z,57.64
2019-02-25T04:29:09.515Z,57.60
2019-02-25T04:31:40.816Z,57.63
2019-02-25T04:34:12.132Z,58.27
2019-02-25T04:36:44.463Z,58.08
2019-02-25T04:39:15.724Z,58.31
2019-02-25T04:41:48.312Z,57.76
2019-02-25T04:44:19.653Z,57.80
2019-02-25T04:46:50.866Z,58.13
2019-02-25T04:49:22.346Z,58.52
2019-02-25T04:51:53.649Z,58.19
2019-02-25T04:54:25.135Z,58.19
2019-02-25T04:56:56.388Z,58.02
2019-02-25T04:59:27.714Z,58.13
2019-02-25T05:01:59.060Z,57.69
2019-02-25T05:04:30.407Z,57.99
2019-02-25T05:07:01.805Z,57.99
2019-02-25T05:09:33.145Z,57.97
2019-02-25T05:12:04.466Z,57.64
2019-02-25T05:14:35.656Z,57.91
2019-02-25T05:17:07.986Z,58.96
2019-02-25T05:19:39.290Z,59.05
2019-02-25T05:22:10.561Z,58.39
2019-02-25T05:24:42.933Z,58.49
2019-02-25T05:27:14.469Z,58.33
2019-02-25T05:29:45.849Z,58.59
2019-02-25T05:32:17.194Z,58.78
2019-02-25T05:34:48.782Z,58.57
2019-02-25T05:37:20.063Z,58.30
2019-02-25T05:39:51.386Z,58.26
2019-02-25T05:42:23.335Z,58.58
2019-02-25T05:44:55.201Z,58.41
2019-02-25T05:47:26.895Z,58.25
2019-02-25T05:49:58.230Z,58.96
2019-02-25T05:52:29.645Z,58.96
2019-02-25T05:55:00.993Z,58.51
2019-02-25T05:57:33.540Z,58.99
2019-02-25T06:00:08.169Z,59.04
2019-02-25T06:02:39.681Z,59.22
2019-02-25T06:05:11.055Z,58.75
2019-02-25T06:07:42.525Z,59.52
2019-02-25T06:10:14.427Z,59.21
2019-02-25T06:12:45.822Z,58.97
2019-02-25T06:15:19.493Z,59.29
2019-02-25T06:17:51.354Z,59.07
2019-02-25T06:20:22.683Z,58.35
2019-02-25T06:22:54.136Z,58.78
2019-02-25T06:25:25.533Z,58.71
2019-02-25T06:27:57.030Z,58.92
2019-02-25T06:30:28.566Z,58.92
2019-02-25T06:33:00.023Z,58.62
2019-02-25T06:35:31.428Z,58.99
2019-02-25T06:38:03.025Z,58.49
2019-02-25T06:40:34.453Z,58.62
2019-02-25T06:43:05.972Z,58.29
2019-02-25T06:45:37.766Z,58.28
2019-02-25T06:48:09.205Z,57.81
2019-02-25T06:50:40.700Z,58.57
2019-02-25T06:53:12.127Z,58.57
2019-02-25T06:55:43.572Z,58.72
2019-02-25T06:58:15.214Z,58.66
2019-02-25T07:00:46.627Z,58.18
2019-02-25T07:03:18.092Z,57.47
2019-02-25T07:05:51.016Z,57.26
2019-02-25T07:08:27.088Z,57.77
2019-02-25T07:11:03.016Z,58.02
2019-02-25T07:13:37.113Z,58.61
2019-02-25T07:16:10.051Z,57.76
2019-02-25T07:18:59.528Z,57.78
2019-02-25T07:21:44.775Z,57.39
2019-02-25T07:24:17.838Z,57.50
2019-02-25T07:27:07.205Z,57.52
2019-02-25T07:29:43.208Z,57.46
2019-02-25T07:32:30.106Z,56.59
2019-02-25T07:35:11.844Z,56.59
2019-02-25T07:37:53.840Z,57.25
2019-02-25T07:40:26.777Z,57.08
2019-02-25T07:43:08.742Z,56.88
2019-02-25T07:45:43.282Z,57.51
2019-02-25T07:48:16.405Z,57.42
2019-02-25T07:50:55.151Z,57.64
2019-02-25T07:53:28.172Z,58.06
2019-02-25T07:56:06.223Z,57.38
2019-02-25T07:58:49.163Z,57.20
2019-02-25T08:01:24.723Z,57.01
2019-02-25T08:03:57.342Z,57.25
2019-02-25T08:06:39.695Z,56.83
2019-02-25T08:09:15.708Z,56.64
2019-02-25T08:11:51.793Z,56.32
2019-02-25T08:14:30.715Z,57.11
2019-02-25T08:17:04.653Z,56.76
2019-02-25T08:19:40.855Z,56.57
2019-02-25T08:22:28.933Z,55.83
2019-02-25T08:25:18.870Z,55.00
2019-02-25T08:27:51.863Z,55.01
2019-02-25T08:30:39.885Z,54.91
2019-02-25T08:33:15.838Z,54.75
2019-02-25T08:36:09.868Z,53.66
2019-02-25T08:38:59.182Z,53.16
2019-02-25T08:41:36.254Z,51.83
2019-02-25T08:44:18.057Z,49.06
2019-02-25T08:46:57.094Z,47.49
2019-02-25T08:49:29.899Z,46.75
2019-02-25T08:52:01.317Z,47.94
2019-02-25T08:54:32.672Z,48.38
2019-02-25T08:57:03.997Z,47.67
2019-02-25T08:59:36.865Z,47.86
2019-02-25T09:02:08.403Z,46.22
2019-02-25T09:04:40.245Z,46.91
2019-02-25T09:07:11.772Z,47.80
2019-02-25T09:09:43.219Z,49.27
2019-02-25T09:12:14.897Z,49.07
2019-02-25T09:14:46.237Z,46.48
2019-02-25T09:17:19.311Z,45.08
2019-02-25T09:19:50.036Z,44.14
2019-02-25T09:22:21.238Z,46.45
2019-02-25T09:24:52.706Z,48.08
2019-02-25T09:27:24.286Z,47.89
2019-02-25T09:29:55.697Z,48.29
2019-02-25T09:32:29.711Z,49.21
2019-02-25T09:35:01.165Z,48.70
2019-02-25T09:37:32.610Z,49.21
2019-02-25T09:40:08.344Z,48.31
2019-02-25T09:42:39.694Z,48.27
2019-02-25T09:45:17.920Z,47.05
2019-02-25T09:47:49.369Z,47.19
2019-02-25T09:50:22.579Z,47.77
2019-02-25T09:52:53.929Z,48.48
2019-02-25T09:55:25.416Z,49.79
2019-02-25T09:57:56.868Z,49.90
2019-02-25T10:00:28.232Z,50.61
2019-02-25T10:03:01.468Z,51.62
2019-02-25T10:05:33.849Z,51.74
2019-02-25T10:08:05.353Z,51.34
2019-02-25T10:10:36.889Z,51.67
2019-02-25T10:13:08.301Z,50.90
2019-02-25T10:15:39.867Z,51.49
2019-02-25T10:18:13.358Z,51.58
2019-02-25T10:20:44.926Z,52.08
2019-02-25T10:23:16.502Z,52.54
2019-02-25T10:25:47.891Z,52.22
2019-02-25T10:28:19.344Z,53.11
2019-02-25T10:30:53.115Z,53.22
2019-02-25T10:33:25.848Z,53.26
2019-02-25T10:35:57.313Z,53.09
2019-02-25T10:38:29.789Z,53.67
2019-02-25T10:41:02.211Z,53.86
2019-02-25T10:43:39.727Z,53.45
2019-02-25T10:46:13.471Z,53.84
2019-02-25T10:48:44.699Z,53.73
2019-02-25T10:51:16.188Z,53.96
2019-02-25T10:53:49.538Z,54.02
2019-02-25T10:56:26.009Z,53.85
2019-02-25T10:58:58.136Z,54.28
2019-02-25T11:01:30.697Z,54.24
2019-02-25T11:04:02.314Z,54.70
2019-02-25T11:06:35.541Z,54.19
2019-02-25T11:09:25.933Z,53.29
2019-02-25T11:11:59.943Z,54.10
2019-02-25T11:14:31.619Z,54.66
2019-02-25T11:17:07.747Z,54.89
2019-02-25T11:19:39.279Z,55.24
2019-02-25T11:22:12.602Z,56.14
2019-02-25T11:24:49.780Z,55.84
2019-02-25T11:27:20.881Z,56.55
2019-02-25T11:29:52.378Z,56.49
2019-02-25T11:32:25.914Z,57.04
2019-02-25T11:34:56.960Z,57.26
2019-02-25T11:37:28.574Z,57.21
2019-02-25T11:40:03.899Z,56.81
2019-02-25T11:42:34.976Z,57.34
2019-02-25T11:45:20.757Z,57.44
2019-02-25T11:47:52.104Z,58.17
2019-02-25T11:50:23.575Z,57.94
2019-02-25T11:52:54.922Z,57.62
2019-02-25T11:55:26.395Z,57.86
2019-02-25T11:57:57.912Z,58.00
2019-02-25T12:00:30.315Z,57.82
2019-02-25T12:03:01.711Z,57.89
2019-02-25T12:05:33.388Z,59.00
2019-02-25T12:08:04.756Z,59.34
2019-02-25T12:10:36.404Z,58.61
2019-02-25T12:13:17.986Z,58.60
2019-02-25T12:15:55.471Z,58.41
2019-02-25T12:18:28.614Z,58.19
2019-02-25T12:21:03.762Z,58.53
2019-02-25T12:23:39.054Z,58.51
2019-02-25T12:26:11.066Z,59.01
2019-02-25T12:28:42.554Z,58.39
2019-02-25T12:31:13.942Z,58.69
2019-02-25T12:33:45.464Z,58.54
2019-02-25T12:36:16.851Z,59.12
2019-02-25T12:38:48.262Z,59.07
2019-02-25T12:41:19.601Z,59.13
2019-02-25T12:43:50.935Z,59.29
2019-02-25T12:46:22.287Z,59.12
2019-02-25T12:48:53.926Z,59.24
2019-02-25T12:51:25.329Z,59.08
2019-02-25T12:53:56.772Z,58.65
2019-02-25T12:56:28.324Z,59.05
2019-02-25T12:58:59.872Z,58.96
2019-02-25T13:01:31.282Z,58.86
2019-02-25T13:04:02.679Z,58.88
2019-02-25T13:06:36.717Z,58.69
2019-02-25T13:09:11.354Z,58.85
2019-02-25T13:11:44.473Z,59.36
2019-02-25T13:14:15.860Z,59.46
2019-02-25T13:16:47.310Z,59.74
2019-02-25T13:19:18.653Z,59.94
2019-02-25T13:21:51.428Z,59.47
2019-02-25T13:24:22.761Z,59.83
2019-02-25T13:26:54.512Z,59.93
2019-02-25T13:29:26.052Z,60.14
2019-02-25T13:31:57.589Z,60.28
2019-02-25T13:34:29.226Z,60.04
2019-02-25T13:37:00.725Z,59.83
2019-02-25T13:39:35.178Z,60.01
2019-02-25T13:42:06.643Z,60.65
2019-02-25T13:44:38.247Z,60.61
2019-02-25T13:47:09.774Z,60.72
2019-02-25T13:49:41.224Z,60.43
2019-02-25T13:52:13.022Z,60.36
2019-02-25T13:54:44.541Z,60.51
2019-02-25T13:57:16.600Z,60.27
2019-02-25T13:59:48.060Z,60.24
2019-02-25T14:02:19.891Z,60.67
2019-02-25T14:04:51.416Z,60.16
2019-02-25T14:07:23.596Z,60.34
2019-02-25T14:09:56.466Z,60.12
2019-02-25T14:12:28.953Z,60.09
2019-02-25T14:15:01.329Z,61.08
2019-02-25T14:17:32.637Z,60.91
2019-02-25T14:20:07.363Z,61.33
2019-02-25T14:22:38.781Z,61.65
2019-02-25T14:25:12.774Z,61.32
2019-02-25T14:27:46.462Z,61.40
2019-02-25T14:30:20.800Z,61.33
2019-02-25T14:32:53.488Z,61.32
2019-02-25T14:35:29.053Z,61.70
2019-02-25T14:38:07.677Z,61.16
2019-02-25T14:40:39.373Z,61.80
2019-02-25T14:43:12.605Z,61.62
2019-02-25T14:45:45.962Z,61.49
2019-02-25T14:48:20.361Z,62.01
2019-02-25T14:50:48.796Z,62.32
2019-02-25T14:53:20.329Z,62.33
2019-02-25T14:55:53.101Z,62.74
2019-02-25T14:58:24.818Z,62.84
2019-02-25T15:00:56.610Z,62.76
2019-02-25T15:03:29.155Z,62.35
2019-02-25T15:06:01.515Z,62.40
2019-02-25T15:08:33.048Z,62.67
2019-02-25T15:11:06.604Z,62.71
2019-02-25T15:13:39.110Z,63.21
2019-02-25T15:16:10.027Z,63.01
2019-02-25T15:18:41.536Z,63.67
2019-02-25T15:21:15.686Z,63.76
2019-02-25T15:23:46.059Z,63.72
2019-02-25T15:26:19.857Z,63.71
2019-02-25T15:28:53.687Z,64.14
2019-02-25T15:31:24.189Z,64.07
2019-02-25T15:33:55.732Z,64.26
2019-02-25T15:36:28.962Z,64.61
2019-02-25T15:39:00.790Z,64.14
2019-02-25T15:41:33.049Z,64.09
2019-02-25T15:44:04.891Z,64.43
2019-02-25T15:46:37.250Z,64.13
2019-02-25T15:49:08.693Z,64.34
2019-02-25T15:51:41.576Z,64.46
2019-02-25T15:54:13.305Z,64.17
2019-02-25T15:56:44.802Z,64.19
2019-02-25T15:59:16.263Z,64.31
2019-02-25T16:01:47.895Z,64.40
2019-02-25T16:04:19.473Z,63.81
2019-02-25T16:06:57.425Z,63.41
2019-02-25T16:09:27.701Z,63.10
2019-02-25T16:12:00.993Z,63.64
2019-02-25T16:14:33.362Z,63.62
2019-02-25T16:17:04.850Z,63.54
2019-02-25T16:19:41.315Z,63.47
2019-02-25T16:22:11.379Z,63.26
2019-02-25T16:24:43.688Z,63.56
2019-02-25T16:27:16.794Z,63.59
2019-02-25T16:29:48.447Z,63.36
2019-02-25T16:32:21.503Z,63.63
2019-02-25T16:34:55.577Z,63.45
2019-02-25T16:37:29.113Z,63.65
2019-02-25T16:40:03.120Z,63.28
2019-02-25T16:42:34.767Z,63.43
2019-02-25T16:45:11.805Z,63.46
2019-02-25T16:47:46.046Z,63.69
2019-02-25T16:50:18.244Z,63.71
2019-02-25T16:52:51.027Z,63.57
2019-02-25T16:55:27.700Z,63.71
2019-02-25T16:58:01.815Z,63.21
2019-02-25T17:00:35.444Z,63.82
2019-02-25T17:03:08.225Z,63.94
2019-02-25T17:05:42.310Z,64.00
2019-02-25T17:08:14.880Z,63.93
2019-02-25T17:10:45.657Z,63.79
2019-02-25T17:13:17.142Z,63.72
2019-02-25T17:15:48.711Z,63.75
2019-02-25T17:18:22.893Z,64.04
2019-02-25T17:20:53.521Z,64.15
2019-02-25T17:23:27.460Z,64.29
2019-02-25T17:25:59.261Z,64.92
2019-02-25T17:28:30.863Z,64.48
2019-02-25T17:31:02.345Z,64.47
2019-02-25T17:33:34.952Z,64.83
2019-02-25T17:36:07.660Z,65.22
2019-02-25T17:38:41.114Z,65.32
2019-02-25T17:41:13.512Z,65.98
2019-02-25T17:43:45.051Z,65.91
2019-02-25T17:46:17.228Z,66.04
2019-02-25T17:48:48.600Z,66.23
2019-02-25T17:51:20.836Z,66.68
2019-02-25T17:53:54.714Z,66.87
2019-02-25T17:56:26.947Z,67.28
2019-02-25T17:59:01.019Z,67.17
2019-02-25T18:01:33.536Z,67.11
2019-02-25T18:04:06.663Z,67.13
2019-02-25T18:06:41.379Z,66.64
2019-02-25T18:09:14.250Z,67.22
2019-02-25T18:11:47.695Z,67.17
2019-02-25T18:14:19.792Z,67.41
2019-02-25T18:16:51.453Z,67.61
2019-02-25T18:19:24.893Z,67.56
2019-02-25T18:21:58.311Z,68.07
2019-02-25T18:24:32.398Z,68.05
2019-02-25T18:27:04.416Z,68.41
2019-02-25T18:29:36.191Z,68.50
2019-02-25T18:32:08.458Z,68.67
2019-02-25T18:34:40.686Z,68.26
2019-02-25T18:37:13.473Z,68.36
2019-02-25T18:39:45.663Z,68.27
2019-02-25T18:42:18.521Z,68.37
2019-02-25T18:44:51.355Z,68.31
2019-02-25T18:47:25.200Z,68.66
2019-02-25T18:49:57.142Z,68.67
2019-02-25T18:52:31.506Z,68.89
2019-02-25T18:55:04.375Z,68.74
2019-02-25T18:57:35.638Z,69.13
2019-02-25T19:00:10.573Z,69.41
2019-02-25T19:02:42.738Z,69.54
2019-02-25T19:05:14.581Z,69.69
2019-02-25T19:07:48.821Z,69.70
2019-02-25T19:10:21.022Z,69.64
2019-02-25T19:12:56.356Z,69.54
2019-02-25T19:15:28.393Z,69.99
2019-02-25T19:18:00.129Z,69.84
2019-02-25T19:20:31.767Z,70.07
2019-02-25T19:23:05.756Z,69.65
2019-02-25T19:25:37.063Z,69.98
2019-02-25T19:28:08.605Z,69.57
2019-02-25T19:30:39.982Z,69.86
2019-02-25T19:33:11.732Z,69.59
2019-02-25T19:35:43.331Z,69.75
2019-02-25T19:38:15.860Z,69.79
2019-02-25T19:40:51.217Z,69.54
2019-02-25T19:43:21.638Z,69.76
2019-02-25T19:45:52.960Z,69.80
2019-02-25T19:48:28.222Z,69.52
2019-02-25T19:50:59.042Z,69.50
2019-02-25T19:53:31.695Z,69.38
2019-02-25T19:56:02.508Z,69.51
2019-02-25T19:58:35.873Z,69.31
2019-02-25T20:01:09.004Z,69.46
2019-02-25T20:03:42.506Z,69.27
2019-02-25T20:06:16.245Z,69.15
2019-02-25T20:08:48.664Z,69.61
2019-02-25T20:11:20.631Z,69.73
2019-02-25T20:13:51.995Z,69.86
2019-02-25T20:16:25.980Z,70.05
2019-02-25T20:18:56.046Z,69.63
2019-02-25T20:21:30.507Z,69.91
2019-02-25T20:24:01.759Z,69.74
2019-02-25T20:26:33.266Z,69.32
2019-02-25T20:29:06.257Z,69.53
2019-02-25T20:31:37.630Z,69.52
2019-02-25T20:34:08.892Z,68.93
2019-02-25T20:36:40.648Z,68.63
2019-02-25T20:39:11.882Z,68.90
2019-02-25T20:41:45.804Z,68.88
2019-02-25T20:44:18.579Z,68.81
2019-02-25T20:46:52.684Z,68.42
2019-02-25T20:49:24.929Z,68.57
2019-02-25T20:51:56.696Z,68.79
2019-02-25T20:54:28.808Z,68.03
2019-02-25T20:57:00.414Z,68.39
2019-02-25T20:59:33.119Z,67.93
2019-02-25T21:02:07.462Z,68.80
2019-02-25T21:04:38.717Z,68.32
2019-02-25T21:07:11.505Z,67.59
2019-02-25T21:09:44.088Z,68.14
2019-02-25T21:12:17.675Z,68.53
2019-02-25T21:14:48.482Z,68.26
2019-02-25T21:17:19.761Z,67.57
2019-02-25T21:19:50.939Z,67.72
2019-02-25T21:22:23.350Z,67.89
2019-02-25T21:24:55.890Z,67.81
2019-02-25T21:27:30.105Z,67.61
2019-02-25T21:30:01.574Z,67.53
2019-02-25T21:32:34.244Z,67.92
2019-02-25T21:35:09.024Z,68.26
2019-02-25T21:37:43.359Z,67.78
2019-02-25T21:40:15.376Z,67.28
2019-02-25T21:42:49.297Z,67.40
2019-02-25T21:45:20.616Z,67.73
2019-02-25T21:47:54.601Z,67.85
2019-02-25T21:50:28.382Z,68.23
2019-02-25T21:52:58.221Z,67.77
2019-02-25T21:55:31.001Z,68.39
2019-02-25T21:58:04.365Z,68.29
2019-02-25T22:00:37.483Z,68.20
2019-02-25T22:03:10.268Z,69.16
2019-02-25T22:05:40.808Z,68.76
2019-02-25T22:08:12.216Z,68.66
2019-02-25T22:10:44.145Z,68.07
2019-02-25T22:13:18.352Z,67.74
2019-02-25T22:15:50.649Z,67.47
2019-02-25T22:18:21.984Z,67.57
2019-02-25T22:20:53.552Z,67.02
2019-02-25T22:23:26.148Z,66.58
2019-02-25T22:25:58.226Z,66.70
2019-02-25T22:28:30.526Z,66.97
2019-02-25T22:31:02.429Z,66.51
2019-02-25T22:33:33.619Z,66.64
2019-02-25T22:36:05.114Z,66.44
2019-02-25T22:38:36.633Z,66.38
2019-02-25T22:41:07.992Z,66.44
2019-02-25T22:43:41.320Z,66.42
2019-02-25T22:46:12.474Z,66.50
2019-02-25T22:48:45.556Z,66.33
2019-02-25T22:51:19.447Z,66.10
2019-02-25T22:53:50.322Z,66.14
2019-02-25T22:56:23.718Z,66.11
2019-02-25T22:58:56.592Z,65.79
2019-02-25T23:01:28.337Z,65.32
2019-02-25T23:03:59.678Z,65.44
2019-02-25T23:06:31.134Z,65.23
2019-02-25T23:09:02.692Z,65.85
2019-02-25T23:11:35.701Z,65.60
2019-02-25T23:14:07.765Z,65.72
2019-02-25T23:16:41.588Z,65.04
2019-02-25T23:19:13.742Z,64.73
2019-02-25T23:21:45.099Z,64.70
2019-02-25T23:24:16.310Z,64.55
2019-02-25T23:26:48.667Z,64.81
2019-02-25T23:29:21.736Z,64.62
2019-02-25T23:31:52.685Z,64.69
2019-02-25T23:34:23.898Z,64.49
2019-02-25T23:36:56.237Z,64.38
2019-02-25T23:39:27.795Z,65.02
2019-02-25T23:42:00.610Z,65.25
2019-02-25T23:44:32.149Z,64.84
2019-02-25T23:47:04.438Z,65.15
2019-02-25T23:49:36.551Z,64.81
2019-02-25T23:52:08.500Z,65.34
2019-02-25T23:54:43.352Z,65.31
2019-02-25T23:57:14.683Z,65.88
2019-02-25T23:59:47.058Z,65.63
